sensor_id;sensor_type;location;lat;lon;timestamp;P1;durP1;ratioP1;P2;durP2;ratioP2
15327;SDS011;7764;51.430;6.840;2023-05-07T00:00:41;5.93;;;4.03;;
15327;SDS011;7764;51.430;6.840;2023-05-07T00:03:08;6.47;;;3.80;;
15327;SDS011;7764;51.430;6.840;2023-05-07T00:05:37;5.32;;;3.60;;
15327;SDS011;7764;51.430;6.840;2023-05-07T00:08:04;5.85;;;4.00;;
15327;SDS011;7764;51.430;6.840;2023-05-07T00:10:31;6.55;;;4.00;;
15327;SDS011;7764;51.430;6.840;2023-05-07T00:12:58;7.47;;;5.00;;
15327;SDS011;7764;51.430;6.840;2023-05-07T00:15:25;9.25;;;6.43;;
15327;SDS011;7764;51.430;6.840;2023-05-07T00:17:52;10.77;;;7.60;;
15327;SDS011;7764;51.430;6.840;2023-05-07T00:20:19;10.27;;;7.53;;
15327;SDS011;7764;51.430;6.840;2023-05-07T00:22:47;9.75;;;6.90;;
15327;SDS011;7764;51.430;6.840;2023-05-07T00:25:14;11.93;;;8.10;;
15327;SDS011;7764;51.430;6.840;2023-05-07T00:27:41;12.18;;;7.80;;
15327;SDS011;7764;51.430;6.840;2023-05-07T00:30:09;12.32;;;8.27;;
15327;SDS011;7764;51.430;6.840;2023-05-07T00:32:36;11.65;;;8.90;;
15327;SDS011;7764;51.430;6.840;2023-05-07T00:35:04;12.52;;;8.75;;
15327;SDS011;7764;51.430;6.840;2023-05-07T00:37:32;12.27;;;9.73;;
15327;SDS011;7764;51.430;6.840;2023-05-07T00:40:00;13.35;;;9.45;;
15327;SDS011;7764;51.430;6.840;2023-05-07T00:42:29;12.10;;;9.50;;
15327;SDS011;7764;51.430;6.840;2023-05-07T00:44:57;12.77;;;9.50;;
15327;SDS011;7764;51.430;6.840;2023-05-07T00:47:24;12.73;;;9.50;;
15327;SDS011;7764;51.430;6.840;2023-05-07T00:49:51;13.57;;;9.55;;
15327;SDS011;7764;51.430;6.840;2023-05-07T00:52:19;14.70;;;10.60;;
15327;SDS011;7764;51.430;6.840;2023-05-07T00:54:47;11.68;;;9.30;;
15327;SDS011;7764;51.430;6.840;2023-05-07T00:57:16;14.68;;;10.98;;
15327;SDS011;7764;51.430;6.840;2023-05-07T00:59:43;13.30;;;10.82;;
15327;SDS011;7764;51.430;6.840;2023-05-07T01:02:10;12.77;;;10.27;;
15327;SDS011;7764;51.430;6.840;2023-05-07T01:04:37;12.85;;;11.07;;
15327;SDS011;7764;51.430;6.840;2023-05-07T01:07:04;14.40;;;10.07;;
15327;SDS011;7764;51.430;6.840;2023-05-07T01:09:31;13.68;;;10.35;;
15327;SDS011;7764;51.430;6.840;2023-05-07T01:12:00;14.07;;;10.75;;
15327;SDS011;7764;51.430;6.840;2023-05-07T01:14:28;14.40;;;11.50;;
15327;SDS011;7764;51.430;6.840;2023-05-07T01:16:56;14.03;;;10.47;;
15327;SDS011;7764;51.430;6.840;2023-05-07T01:19:23;16.23;;;10.93;;
15327;SDS011;7764;51.430;6.840;2023-05-07T01:21:50;13.80;;;10.68;;
15327;SDS011;7764;51.430;6.840;2023-05-07T01:24:22;13.90;;;10.63;;
15327;SDS011;7764;51.430;6.840;2023-05-07T01:26:49;11.37;;;9.03;;
15327;SDS011;7764;51.430;6.840;2023-05-07T01:29:16;12.27;;;9.20;;
15327;SDS011;7764;51.430;6.840;2023-05-07T01:31:42;12.70;;;9.77;;
15327;SDS011;7764;51.430;6.840;2023-05-07T01:34:10;11.98;;;10.00;;
15327;SDS011;7764;51.430;6.840;2023-05-07T01:36:38;13.23;;;8.98;;
15327;SDS011;7764;51.430;6.840;2023-05-07T01:39:07;13.23;;;9.17;;
15327;SDS011;7764;51.430;6.840;2023-05-07T01:41:37;12.93;;;8.30;;
15327;SDS011;7764;51.430;6.840;2023-05-07T01:44:03;11.23;;;8.13;;
15327;SDS011;7764;51.430;6.840;2023-05-07T01:46:32;14.20;;;8.57;;
15327;SDS011;7764;51.430;6.840;2023-05-07T01:48:59;13.10;;;9.07;;
15327;SDS011;7764;51.430;6.840;2023-05-07T01:51:26;14.53;;;8.83;;
15327;SDS011;7764;51.430;6.840;2023-05-07T01:53:53;12.67;;;8.70;;
15327;SDS011;7764;51.430;6.840;2023-05-07T01:56:20;11.70;;;8.50;;
15327;SDS011;7764;51.430;6.840;2023-05-07T01:58:48;12.15;;;8.85;;
15327;SDS011;7764;51.430;6.840;2023-05-07T02:01:16;11.53;;;8.67;;
15327;SDS011;7764;51.430;6.840;2023-05-07T02:03:43;13.50;;;8.30;;
15327;SDS011;7764;51.430;6.840;2023-05-07T02:06:10;10.17;;;7.83;;
15327;SDS011;7764;51.430;6.840;2023-05-07T02:08:37;12.57;;;8.57;;
15327;SDS011;7764;51.430;6.840;2023-05-07T02:11:04;12.50;;;8.93;;
15327;SDS011;7764;51.430;6.840;2023-05-07T02:13:32;10.80;;;7.97;;
15327;SDS011;7764;51.430;6.840;2023-05-07T02:16:01;9.83;;;7.90;;
15327;SDS011;7764;51.430;6.840;2023-05-07T02:18:28;10.25;;;7.80;;
15327;SDS011;7764;51.430;6.840;2023-05-07T02:20:55;11.73;;;7.97;;
15327;SDS011;7764;51.430;6.840;2023-05-07T02:23:22;10.32;;;7.15;;
15327;SDS011;7764;51.430;6.840;2023-05-07T02:25:49;11.60;;;7.57;;
15327;SDS011;7764;51.430;6.840;2023-05-07T02:28:16;9.03;;;7.30;;
15327;SDS011;7764;51.430;6.840;2023-05-07T02:30:43;10.48;;;7.35;;
15327;SDS011;7764;51.430;6.840;2023-05-07T02:33:11;9.63;;;7.40;;
15327;SDS011;7764;51.430;6.840;2023-05-07T02:35:39;10.47;;;7.33;;
15327;SDS011;7764;51.430;6.840;2023-05-07T02:38:06;10.70;;;7.47;;
15327;SDS011;7764;51.430;6.840;2023-05-07T02:40:35;10.33;;;7.40;;
15327;SDS011;7764;51.430;6.840;2023-05-07T02:43:03;9.93;;;7.90;;
15327;SDS011;7764;51.430;6.840;2023-05-07T02:45:30;12.65;;;8.63;;
15327;SDS011;7764;51.430;6.840;2023-05-07T02:47:57;10.45;;;8.05;;
15327;SDS011;7764;51.430;6.840;2023-05-07T02:50:25;11.15;;;8.27;;
15327;SDS011;7764;51.430;6.840;2023-05-07T02:52:52;10.40;;;7.50;;
15327;SDS011;7764;51.430;6.840;2023-05-07T02:55:19;10.05;;;7.90;;
15327;SDS011;7764;51.430;6.840;2023-05-07T02:57:46;14.03;;;9.10;;
15327;SDS011;7764;51.430;6.840;2023-05-07T03:00:13;11.98;;;8.80;;
15327;SDS011;7764;51.430;6.840;2023-05-07T03:02:41;11.30;;;8.93;;
15327;SDS011;7764;51.430;6.840;2023-05-07T03:05:08;12.40;;;9.43;;
15327;SDS011;7764;51.430;6.840;2023-05-07T03:07:37;12.75;;;9.60;;
15327;SDS011;7764;51.430;6.840;2023-05-07T03:10:04;12.75;;;8.70;;
15327;SDS011;7764;51.430;6.840;2023-05-07T03:12:31;12.37;;;9.30;;
15327;SDS011;7764;51.430;6.840;2023-05-07T03:14:58;12.57;;;9.00;;
15327;SDS011;7764;51.430;6.840;2023-05-07T03:17:25;12.13;;;9.40;;
15327;SDS011;7764;51.430;6.840;2023-05-07T03:19:52;14.70;;;10.30;;
15327;SDS011;7764;51.430;6.840;2023-05-07T03:22:18;15.63;;;10.33;;
15327;SDS011;7764;51.430;6.840;2023-05-07T03:24:46;12.27;;;9.67;;
15327;SDS011;7764;51.430;6.840;2023-05-07T03:27:13;14.00;;;10.47;;
15327;SDS011;7764;51.430;6.840;2023-05-07T03:29:40;13.73;;;10.17;;
15327;SDS011;7764;51.430;6.840;2023-05-07T03:32:07;13.80;;;10.75;;
15327;SDS011;7764;51.430;6.840;2023-05-07T03:34:34;13.53;;;10.63;;
15327;SDS011;7764;51.430;6.840;2023-05-07T03:37:01;13.73;;;10.43;;
15327;SDS011;7764;51.430;6.840;2023-05-07T03:39:28;13.33;;;11.23;;
15327;SDS011;7764;51.430;6.840;2023-05-07T03:41:56;17.03;;;12.20;;
15327;SDS011;7764;51.430;6.840;2023-05-07T03:44:23;13.30;;;10.93;;
15327;SDS011;7764;51.430;6.840;2023-05-07T03:46:50;13.83;;;11.40;;
15327;SDS011;7764;51.430;6.840;2023-05-07T03:49:17;13.47;;;10.93;;
15327;SDS011;7764;51.430;6.840;2023-05-07T03:51:44;16.25;;;11.27;;
15327;SDS011;7764;51.430;6.840;2023-05-07T03:54:11;13.63;;;11.63;;
15327;SDS011;7764;51.430;6.840;2023-05-07T03:56:38;13.67;;;11.57;;
15327;SDS011;7764;51.430;6.840;2023-05-07T03:59:06;14.90;;;12.77;;
15327;SDS011;7764;51.430;6.840;2023-05-07T04:01:33;16.20;;;12.67;;
15327;SDS011;7764;51.430;6.840;2023-05-07T04:04:00;16.37;;;12.60;;
15327;SDS011;7764;51.430;6.840;2023-05-07T04:06:28;17.10;;;13.20;;
15327;SDS011;7764;51.430;6.840;2023-05-07T04:08:54;16.15;;;13.90;;
15327;SDS011;7764;51.430;6.840;2023-05-07T04:11:21;16.67;;;13.07;;
15327;SDS011;7764;51.430;6.840;2023-05-07T04:13:48;15.93;;;13.73;;
15327;SDS011;7764;51.430;6.840;2023-05-07T04:16:16;15.47;;;12.70;;
15327;SDS011;7764;51.430;6.840;2023-05-07T04:18:43;16.05;;;13.85;;
15327;SDS011;7764;51.430;6.840;2023-05-07T04:21:13;16.20;;;14.27;;
15327;SDS011;7764;51.430;6.840;2023-05-07T04:23:41;17.93;;;14.07;;
15327;SDS011;7764;51.430;6.840;2023-05-07T04:26:08;17.83;;;14.77;;
15327;SDS011;7764;51.430;6.840;2023-05-07T04:28:35;19.57;;;16.10;;
15327;SDS011;7764;51.430;6.840;2023-05-07T04:31:02;20.10;;;15.57;;
15327;SDS011;7764;51.430;6.840;2023-05-07T04:33:31;17.80;;;15.10;;
15327;SDS011;7764;51.430;6.840;2023-05-07T04:35:58;17.52;;;14.73;;
15327;SDS011;7764;51.430;6.840;2023-05-07T04:38:27;18.23;;;15.30;;
15327;SDS011;7764;51.430;6.840;2023-05-07T04:40:54;20.90;;;16.83;;
15327;SDS011;7764;51.430;6.840;2023-05-07T04:43:22;20.10;;;16.73;;
15327;SDS011;7764;51.430;6.840;2023-05-07T04:45:49;21.53;;;17.30;;
15327;SDS011;7764;51.430;6.840;2023-05-07T04:48:16;20.27;;;17.43;;
15327;SDS011;7764;51.430;6.840;2023-05-07T04:50:45;19.42;;;16.70;;
15327;SDS011;7764;51.430;6.840;2023-05-07T04:53:14;20.67;;;17.13;;
15327;SDS011;7764;51.430;6.840;2023-05-07T04:55:41;18.80;;;16.13;;
15327;SDS011;7764;51.430;6.840;2023-05-07T04:58:08;19.67;;;16.83;;
15327;SDS011;7764;51.430;6.840;2023-05-07T05:00:35;20.60;;;16.57;;
15327;SDS011;7764;51.430;6.840;2023-05-07T05:03:02;20.65;;;16.85;;
15327;SDS011;7764;51.430;6.840;2023-05-07T05:05:30;18.97;;;16.77;;
15327;SDS011;7764;51.430;6.840;2023-05-07T05:07:58;19.90;;;17.33;;
15327;SDS011;7764;51.430;6.840;2023-05-07T05:10:25;19.53;;;16.80;;
15327;SDS011;7764;51.430;6.840;2023-05-07T05:12:51;22.67;;;18.10;;
15327;SDS011;7764;51.430;6.840;2023-05-07T05:15:18;23.40;;;18.75;;
15327;SDS011;7764;51.430;6.840;2023-05-07T05:17:45;23.47;;;19.77;;
15327;SDS011;7764;51.430;6.840;2023-05-07T05:20:12;24.27;;;19.95;;
15327;SDS011;7764;51.430;6.840;2023-05-07T05:22:39;22.15;;;19.15;;
15327;SDS011;7764;51.430;6.840;2023-05-07T05:25:08;21.97;;;18.73;;
15327;SDS011;7764;51.430;6.840;2023-05-07T05:27:35;21.83;;;18.80;;
15327;SDS011;7764;51.430;6.840;2023-05-07T05:30:03;21.10;;;17.90;;
15327;SDS011;7764;51.430;6.840;2023-05-07T05:32:30;22.10;;;18.70;;
15327;SDS011;7764;51.430;6.840;2023-05-07T05:34:57;20.60;;;18.00;;
15327;SDS011;7764;51.430;6.840;2023-05-07T05:37:24;22.25;;;17.98;;
15327;SDS011;7764;51.430;6.840;2023-05-07T05:39:51;21.67;;;17.77;;
15327;SDS011;7764;51.430;6.840;2023-05-07T05:42:21;21.58;;;16.88;;
15327;SDS011;7764;51.430;6.840;2023-05-07T05:44:47;21.13;;;17.05;;
15327;SDS011;7764;51.430;6.840;2023-05-07T05:47:14;18.65;;;16.65;;
15327;SDS011;7764;51.430;6.840;2023-05-07T05:49:41;18.55;;;15.88;;
15327;SDS011;7764;51.430;6.840;2023-05-07T05:52:09;17.83;;;16.02;;
15327;SDS011;7764;51.430;6.840;2023-05-07T05:54:36;18.33;;;15.82;;
15327;SDS011;7764;51.430;6.840;2023-05-07T05:57:03;17.73;;;15.82;;
15327;SDS011;7764;51.430;6.840;2023-05-07T05:59:32;17.20;;;14.50;;
15327;SDS011;7764;51.430;6.840;2023-05-07T06:01:59;19.05;;;15.23;;
15327;SDS011;7764;51.430;6.840;2023-05-07T06:04:26;18.98;;;14.23;;
15327;SDS011;7764;51.430;6.840;2023-05-07T06:06:52;15.82;;;14.10;;
15327;SDS011;7764;51.430;6.840;2023-05-07T06:09:19;15.95;;;13.23;;
15327;SDS011;7764;51.430;6.840;2023-05-07T06:11:46;16.40;;;13.52;;
15327;SDS011;7764;51.430;6.840;2023-05-07T06:14:13;14.75;;;13.15;;
15327;SDS011;7764;51.430;6.840;2023-05-07T06:16:41;15.82;;;13.68;;
15327;SDS011;7764;51.430;6.840;2023-05-07T06:19:08;15.63;;;12.82;;
15327;SDS011;7764;51.430;6.840;2023-05-07T06:21:35;15.05;;;12.25;;
15327;SDS011;7764;51.430;6.840;2023-05-07T06:24:02;13.98;;;11.18;;
15327;SDS011;7764;51.430;6.840;2023-05-07T06:26:28;13.15;;;11.43;;
15327;SDS011;7764;51.430;6.840;2023-05-07T06:28:55;14.35;;;11.38;;
15327;SDS011;7764;51.430;6.840;2023-05-07T06:31:22;14.23;;;10.35;;
15327;SDS011;7764;51.430;6.840;2023-05-07T06:33:50;15.88;;;10.48;;
15327;SDS011;7764;51.430;6.840;2023-05-07T06:36:17;12.00;;;9.88;;
15327;SDS011;7764;51.430;6.840;2023-05-07T06:38:44;12.25;;;9.45;;
15327;SDS011;7764;51.430;6.840;2023-05-07T06:41:11;11.18;;;9.45;;
15327;SDS011;7764;51.430;6.840;2023-05-07T06:43:38;10.85;;;8.90;;
15327;SDS011;7764;51.430;6.840;2023-05-07T06:46:04;12.43;;;8.98;;
15327;SDS011;7764;51.430;6.840;2023-05-07T06:48:31;11.80;;;7.72;;
15327;SDS011;7764;51.430;6.840;2023-05-07T06:51:02;10.35;;;7.18;;
15327;SDS011;7764;51.430;6.840;2023-05-07T06:53:29;7.25;;;5.60;;
15327;SDS011;7764;51.430;6.840;2023-05-07T06:55:56;16.90;;;14.27;;
15327;SDS011;7764;51.430;6.840;2023-05-07T06:58:23;10.77;;;8.20;;
15327;SDS011;7764;51.430;6.840;2023-05-07T07:00:50;8.45;;;5.35;;
15327;SDS011;7764;51.430;6.840;2023-05-07T07:03:16;9.60;;;5.90;;
15327;SDS011;7764;51.430;6.840;2023-05-07T07:05:43;8.27;;;6.03;;
15327;SDS011;7764;51.430;6.840;2023-05-07T07:08:11;10.60;;;6.15;;
15327;SDS011;7764;51.430;6.840;2023-05-07T07:10:38;7.47;;;5.68;;
15327;SDS011;7764;51.430;6.840;2023-05-07T07:13:05;7.30;;;5.03;;
15327;SDS011;7764;51.430;6.840;2023-05-07T07:15:32;6.82;;;4.50;;
15327;SDS011;7764;51.430;6.840;2023-05-07T07:17:59;7.15;;;4.72;;
15327;SDS011;7764;51.430;6.840;2023-05-07T07:20:25;8.48;;;5.40;;
15327;SDS011;7764;51.430;6.840;2023-05-07T07:22:52;7.88;;;5.38;;
15327;SDS011;7764;51.430;6.840;2023-05-07T07:25:21;7.85;;;5.57;;
15327;SDS011;7764;51.430;6.840;2023-05-07T07:27:48;7.80;;;4.82;;
15327;SDS011;7764;51.430;6.840;2023-05-07T07:30:15;9.43;;;4.63;;
15327;SDS011;7764;51.430;6.840;2023-05-07T07:32:42;8.32;;;4.63;;
15327;SDS011;7764;51.430;6.840;2023-05-07T07:35:09;5.72;;;4.07;;
15327;SDS011;7764;51.430;6.840;2023-05-07T07:37:36;9.27;;;5.22;;
15327;SDS011;7764;51.430;6.840;2023-05-07T07:40:03;7.13;;;5.40;;
15327;SDS011;7764;51.430;6.840;2023-05-07T07:42:32;6.95;;;5.40;;
15327;SDS011;7764;51.430;6.840;2023-05-07T07:44:58;9.02;;;5.45;;
15327;SDS011;7764;51.430;6.840;2023-05-07T07:47:25;7.25;;;5.15;;
15327;SDS011;7764;51.430;6.840;2023-05-07T07:49:52;7.70;;;5.30;;
15327;SDS011;7764;51.430;6.840;2023-05-07T07:52:19;7.55;;;4.88;;
15327;SDS011;7764;51.430;6.840;2023-05-07T07:54:46;6.82;;;4.90;;
15327;SDS011;7764;51.430;6.840;2023-05-07T07:57:12;7.57;;;4.97;;
15327;SDS011;7764;51.430;6.840;2023-05-07T07:59:41;6.82;;;4.85;;
15327;SDS011;7764;51.430;6.840;2023-05-07T08:02:08;6.45;;;4.93;;
15327;SDS011;7764;51.430;6.840;2023-05-07T08:04:35;6.45;;;4.40;;
15327;SDS011;7764;51.430;6.840;2023-05-07T08:07:02;7.78;;;5.20;;
15327;SDS011;7764;51.430;6.840;2023-05-07T08:09:29;6.05;;;4.55;;
15327;SDS011;7764;51.430;6.840;2023-05-07T08:11:56;6.28;;;4.60;;
15327;SDS011;7764;51.430;6.840;2023-05-07T08:14:23;6.57;;;4.47;;
15327;SDS011;7764;51.430;6.840;2023-05-07T08:16:51;6.45;;;4.50;;
15327;SDS011;7764;51.430;6.840;2023-05-07T08:19:18;6.65;;;4.53;;
15327;SDS011;7764;51.430;6.840;2023-05-07T08:21:46;6.13;;;4.57;;
15327;SDS011;7764;51.430;6.840;2023-05-07T08:24:14;7.05;;;4.53;;
15327;SDS011;7764;51.430;6.840;2023-05-07T08:26:41;8.82;;;4.32;;
15327;SDS011;7764;51.430;6.840;2023-05-07T08:29:08;5.57;;;4.07;;
15327;SDS011;7764;51.430;6.840;2023-05-07T08:31:35;6.95;;;4.40;;
15327;SDS011;7764;51.430;6.840;2023-05-07T08:34:03;6.80;;;4.35;;
15327;SDS011;7764;51.430;6.840;2023-05-07T08:36:30;7.97;;;4.55;;
15327;SDS011;7764;51.430;6.840;2023-05-07T08:38:57;6.05;;;3.70;;
15327;SDS011;7764;51.430;6.840;2023-05-07T08:41:24;5.90;;;3.53;;
15327;SDS011;7764;51.430;6.840;2023-05-07T08:43:51;5.43;;;4.20;;
15327;SDS011;7764;51.430;6.840;2023-05-07T08:46:18;7.10;;;4.38;;
15327;SDS011;7764;51.430;6.840;2023-05-07T08:48:47;4.28;;;3.20;;
15327;SDS011;7764;51.430;6.840;2023-05-07T08:51:17;5.22;;;3.42;;
15327;SDS011;7764;51.430;6.840;2023-05-07T08:53:45;5.65;;;3.47;;
15327;SDS011;7764;51.430;6.840;2023-05-07T08:56:13;10.23;;;6.85;;
15327;SDS011;7764;51.430;6.840;2023-05-07T08:58:40;5.25;;;3.42;;
15327;SDS011;7764;51.430;6.840;2023-05-07T09:01:08;4.55;;;2.88;;
15327;SDS011;7764;51.430;6.840;2023-05-07T09:03:36;8.07;;;2.95;;
15327;SDS011;7764;51.430;6.840;2023-05-07T09:06:04;5.35;;;3.47;;
15327;SDS011;7764;51.430;6.840;2023-05-07T09:08:33;4.53;;;3.13;;
15327;SDS011;7764;51.430;6.840;2023-05-07T09:11:01;3.88;;;2.90;;
15327;SDS011;7764;51.430;6.840;2023-05-07T09:13:28;5.20;;;2.83;;
15327;SDS011;7764;51.430;6.840;2023-05-07T09:15:55;3.90;;;2.67;;
15327;SDS011;7764;51.430;6.840;2023-05-07T09:18:23;5.65;;;2.80;;
15327;SDS011;7764;51.430;6.840;2023-05-07T09:20:50;6.13;;;2.90;;
15327;SDS011;7764;51.430;6.840;2023-05-07T09:23:17;4.78;;;3.22;;
15327;SDS011;7764;51.430;6.840;2023-05-07T09:25:45;4.55;;;2.90;;
15327;SDS011;7764;51.430;6.840;2023-05-07T09:28:12;4.72;;;2.92;;
15327;SDS011;7764;51.430;6.840;2023-05-07T09:30:38;4.05;;;3.00;;
15327;SDS011;7764;51.430;6.840;2023-05-07T09:33:05;7.53;;;5.63;;
15327;SDS011;7764;51.430;6.840;2023-05-07T09:35:32;5.20;;;2.90;;
15327;SDS011;7764;51.430;6.840;2023-05-07T09:38:00;5.15;;;2.95;;
15327;SDS011;7764;51.430;6.840;2023-05-07T09:40:28;4.60;;;2.47;;
15327;SDS011;7764;51.430;6.840;2023-05-07T09:43:01;3.67;;;2.80;;
15327;SDS011;7764;51.430;6.840;2023-05-07T09:45:35;5.20;;;2.90;;
15327;SDS011;7764;51.430;6.840;2023-05-07T09:48:04;3.92;;;2.50;;
15327;SDS011;7764;51.430;6.840;2023-05-07T09:50:32;4.82;;;2.90;;
15327;SDS011;7764;51.430;6.840;2023-05-07T09:53:03;4.78;;;2.65;;
15327;SDS011;7764;51.430;6.840;2023-05-07T09:55:30;4.18;;;2.70;;
15327;SDS011;7764;51.430;6.840;2023-05-07T09:57:58;4.03;;;2.40;;
15327;SDS011;7764;51.430;6.840;2023-05-07T10:00:27;4.22;;;2.70;;
15327;SDS011;7764;51.430;6.840;2023-05-07T10:02:56;4.03;;;2.55;;
15327;SDS011;7764;51.430;6.840;2023-05-07T10:05:24;4.82;;;2.40;;
15327;SDS011;7764;51.430;6.840;2023-05-07T10:07:52;3.45;;;2.67;;
15327;SDS011;7764;51.430;6.840;2023-05-07T10:10:20;4.63;;;2.45;;
15327;SDS011;7764;51.430;6.840;2023-05-07T10:12:48;5.05;;;2.67;;
15327;SDS011;7764;51.430;6.840;2023-05-07T10:15:17;5.35;;;2.90;;
15327;SDS011;7764;51.430;6.840;2023-05-07T10:17:44;3.75;;;2.75;;
15327;SDS011;7764;51.430;6.840;2023-05-07T10:20:11;5.32;;;2.60;;
15327;SDS011;7764;51.430;6.840;2023-05-07T10:22:39;4.30;;;2.50;;
15327;SDS011;7764;51.430;6.840;2023-05-07T10:25:11;4.07;;;2.50;;
15327;SDS011;7764;51.430;6.840;2023-05-07T10:27:42;4.70;;;2.92;;
15327;SDS011;7764;51.430;6.840;2023-05-07T10:30:14;5.88;;;2.60;;
15327;SDS011;7764;51.430;6.840;2023-05-07T10:32:51;4.03;;;2.42;;
15327;SDS011;7764;51.430;6.840;2023-05-07T10:35:23;4.32;;;2.40;;
15327;SDS011;7764;51.430;6.840;2023-05-07T10:37:52;3.75;;;2.50;;
15327;SDS011;7764;51.430;6.840;2023-05-07T10:40:19;3.83;;;2.22;;
15327;SDS011;7764;51.430;6.840;2023-05-07T10:42:54;4.25;;;2.50;;
15327;SDS011;7764;51.430;6.840;2023-05-07T10:45:23;4.88;;;2.65;;
15327;SDS011;7764;51.430;6.840;2023-05-07T10:48:06;4.05;;;2.40;;
15327;SDS011;7764;51.430;6.840;2023-05-07T10:50:35;4.03;;;2.40;;
15327;SDS011;7764;51.430;6.840;2023-05-07T10:53:21;3.33;;;2.55;;
15327;SDS011;7764;51.430;6.840;2023-05-07T10:55:51;5.88;;;2.70;;
15327;SDS011;7764;51.430;6.840;2023-05-07T10:58:38;3.83;;;2.67;;
15327;SDS011;7764;51.430;6.840;2023-05-07T11:01:07;6.53;;;2.75;;
15327;SDS011;7764;51.430;6.840;2023-05-07T11:03:35;6.22;;;2.90;;
15327;SDS011;7764;51.430;6.840;2023-05-07T11:06:08;2.55;;;2.15;;
15327;SDS011;7764;51.430;6.840;2023-05-07T11:11:43;3.97;;;2.63;;
15327;SDS011;7764;51.430;6.840;2023-05-07T11:14:11;3.75;;;2.60;;
15327;SDS011;7764;51.430;6.840;2023-05-07T11:16:39;7.53;;;4.60;;
15327;SDS011;7764;51.430;6.840;2023-05-07T11:19:07;5.25;;;3.03;;
15327;SDS011;7764;51.430;6.840;2023-05-07T11:21:35;3.78;;;2.72;;
15327;SDS011;7764;51.430;6.840;2023-05-07T11:24:03;4.10;;;2.78;;
15327;SDS011;7764;51.430;6.840;2023-05-07T11:26:31;3.92;;;2.42;;
15327;SDS011;7764;51.430;6.840;2023-05-07T11:29:13;5.15;;;3.00;;
15327;SDS011;7764;51.430;6.840;2023-05-07T11:31:42;5.43;;;2.90;;
15327;SDS011;7764;51.430;6.840;2023-05-07T11:34:09;4.80;;;3.20;;
15327;SDS011;7764;51.430;6.840;2023-05-07T11:36:41;5.07;;;2.80;;
15327;SDS011;7764;51.430;6.840;2023-05-07T11:39:28;4.03;;;2.80;;
15327;SDS011;7764;51.430;6.840;2023-05-07T11:41:56;4.40;;;3.20;;
15327;SDS011;7764;51.430;6.840;2023-05-07T11:44:23;5.45;;;3.25;;
15327;SDS011;7764;51.430;6.840;2023-05-07T11:46:52;7.63;;;3.10;;
15327;SDS011;7764;51.430;6.840;2023-05-07T11:49:19;5.25;;;2.70;;
15327;SDS011;7764;51.430;6.840;2023-05-07T11:51:46;7.50;;;3.05;;
15327;SDS011;7764;51.430;6.840;2023-05-07T11:54:15;4.20;;;2.97;;
15327;SDS011;7764;51.430;6.840;2023-05-07T11:56:43;5.15;;;2.92;;
15327;SDS011;7764;51.430;6.840;2023-05-07T11:59:12;6.57;;;3.00;;
15327;SDS011;7764;51.430;6.840;2023-05-07T12:01:44;4.60;;;3.15;;
15327;SDS011;7764;51.430;6.840;2023-05-07T12:04:13;7.70;;;3.10;;
15327;SDS011;7764;51.430;6.840;2023-05-07T12:06:45;3.35;;;2.75;;
15327;SDS011;7764;51.430;6.840;2023-05-07T12:09:12;4.22;;;3.00;;
15327;SDS011;7764;51.430;6.840;2023-05-07T12:11:39;4.93;;;3.22;;
15327;SDS011;7764;51.430;6.840;2023-05-07T12:14:06;4.97;;;3.05;;
15327;SDS011;7764;51.430;6.840;2023-05-07T12:16:33;6.38;;;3.30;;
15327;SDS011;7764;51.430;6.840;2023-05-07T12:19:00;4.75;;;2.70;;
15327;SDS011;7764;51.430;6.840;2023-05-07T12:21:29;4.55;;;2.80;;
15327;SDS011;7764;51.430;6.840;2023-05-07T12:23:56;3.25;;;2.70;;
15327;SDS011;7764;51.430;6.840;2023-05-07T12:26:23;4.10;;;2.70;;
15327;SDS011;7764;51.430;6.840;2023-05-07T12:28:50;4.40;;;2.90;;
15327;SDS011;7764;51.430;6.840;2023-05-07T12:31:17;3.78;;;2.63;;
15327;SDS011;7764;51.430;6.840;2023-05-07T12:33:43;5.38;;;4.15;;
15327;SDS011;7764;51.430;6.840;2023-05-07T12:36:12;4.40;;;3.00;;
15327;SDS011;7764;51.430;6.840;2023-05-07T12:38:40;4.07;;;2.90;;
15327;SDS011;7764;51.430;6.840;2023-05-07T12:41:08;4.97;;;3.25;;
15327;SDS011;7764;51.430;6.840;2023-05-07T12:43:36;4.38;;;3.00;;
15327;SDS011;7764;51.430;6.840;2023-05-07T12:46:04;5.63;;;3.67;;
15327;SDS011;7764;51.430;6.840;2023-05-07T12:48:31;4.95;;;3.22;;
15327;SDS011;7764;51.430;6.840;2023-05-07T12:50:59;4.78;;;3.55;;
15327;SDS011;7764;51.430;6.840;2023-05-07T12:53:27;5.85;;;4.10;;
15327;SDS011;7764;51.430;6.840;2023-05-07T12:55:57;5.13;;;3.40;;
15327;SDS011;7764;51.430;6.840;2023-05-07T12:58:26;4.75;;;3.50;;
15327;SDS011;7764;51.430;6.840;2023-05-07T13:00:53;5.18;;;3.63;;
15327;SDS011;7764;51.430;6.840;2023-05-07T13:03:24;9.27;;;4.15;;
15327;SDS011;7764;51.430;6.840;2023-05-07T13:05:52;9.27;;;4.03;;
15327;SDS011;7764;51.430;6.840;2023-05-07T13:08:23;6.55;;;4.32;;
15327;SDS011;7764;51.430;6.840;2023-05-07T13:10:51;8.13;;;4.28;;
15327;SDS011;7764;51.430;6.840;2023-05-07T13:13:19;6.88;;;4.50;;
15327;SDS011;7764;51.430;6.840;2023-05-07T13:15:46;10.98;;;5.82;;
15327;SDS011;7764;51.430;6.840;2023-05-07T13:18:13;14.73;;;6.05;;
15327;SDS011;7764;51.430;6.840;2023-05-07T13:20:40;15.43;;;7.68;;
15327;SDS011;7764;51.430;6.840;2023-05-07T13:23:06;15.18;;;8.43;;
15327;SDS011;7764;51.430;6.840;2023-05-07T13:25:33;15.13;;;7.47;;
15327;SDS011;7764;51.430;6.840;2023-05-07T13:28:01;14.15;;;7.57;;
15327;SDS011;7764;51.430;6.840;2023-05-07T13:30:30;14.00;;;8.80;;
15327;SDS011;7764;51.430;6.840;2023-05-07T13:32:57;11.65;;;8.30;;
15327;SDS011;7764;51.430;6.840;2023-05-07T13:35:24;11.73;;;7.80;;
15327;SDS011;7764;51.430;6.840;2023-05-07T13:37:51;12.68;;;9.00;;
15327;SDS011;7764;51.430;6.840;2023-05-07T13:40:19;10.90;;;7.93;;
15327;SDS011;7764;51.430;6.840;2023-05-07T13:42:46;10.70;;;7.03;;
15327;SDS011;7764;51.430;6.840;2023-05-07T13:45:13;9.55;;;7.75;;
15327;SDS011;7764;51.430;6.840;2023-05-07T13:47:41;11.07;;;8.68;;
15327;SDS011;7764;51.430;6.840;2023-05-07T13:50:09;9.52;;;7.30;;
15327;SDS011;7764;51.430;6.840;2023-05-07T13:52:38;11.95;;;7.80;;
15327;SDS011;7764;51.430;6.840;2023-05-07T13:55:08;11.23;;;8.43;;
15327;SDS011;7764;51.430;6.840;2023-05-07T13:57:35;13.38;;;10.93;;
15327;SDS011;7764;51.430;6.840;2023-05-07T14:00:02;9.07;;;7.00;;
15327;SDS011;7764;51.430;6.840;2023-05-07T14:02:30;9.60;;;8.10;;
15327;SDS011;7764;51.430;6.840;2023-05-07T14:04:58;10.68;;;7.82;;
15327;SDS011;7764;51.430;6.840;2023-05-07T14:07:25;11.32;;;8.13;;
15327;SDS011;7764;51.430;6.840;2023-05-07T14:09:51;12.68;;;8.57;;
15327;SDS011;7764;51.430;6.840;2023-05-07T14:12:18;13.25;;;7.80;;
15327;SDS011;7764;51.430;6.840;2023-05-07T14:14:45;12.80;;;8.45;;
15327;SDS011;7764;51.430;6.840;2023-05-07T14:17:14;10.98;;;8.30;;
15327;SDS011;7764;51.430;6.840;2023-05-07T14:19:42;12.70;;;8.40;;
15327;SDS011;7764;51.430;6.840;2023-05-07T14:22:10;10.88;;;8.27;;
15327;SDS011;7764;51.430;6.840;2023-05-07T14:24:37;10.63;;;8.02;;
15327;SDS011;7764;51.430;6.840;2023-05-07T14:27:04;10.48;;;8.77;;
15327;SDS011;7764;51.430;6.840;2023-05-07T14:29:31;10.27;;;7.55;;
15327;SDS011;7764;51.430;6.840;2023-05-07T14:32:00;10.32;;;7.95;;
15327;SDS011;7764;51.430;6.840;2023-05-07T14:34:27;11.23;;;7.47;;
15327;SDS011;7764;51.430;6.840;2023-05-07T14:36:54;10.55;;;7.72;;
15327;SDS011;7764;51.430;6.840;2023-05-07T14:39:22;11.43;;;7.50;;
15327;SDS011;7764;51.430;6.840;2023-05-07T14:41:50;10.02;;;6.78;;
15327;SDS011;7764;51.430;6.840;2023-05-07T14:44:19;10.70;;;8.02;;
15327;SDS011;7764;51.430;6.840;2023-05-07T14:46:46;7.90;;;6.40;;
15327;SDS011;7764;51.430;6.840;2023-05-07T14:49:13;9.50;;;6.13;;
15327;SDS011;7764;51.430;6.840;2023-05-07T14:51:42;10.40;;;6.30;;
15327;SDS011;7764;51.430;6.840;2023-05-07T14:54:10;12.13;;;8.05;;
15327;SDS011;7764;51.430;6.840;2023-05-07T14:56:38;9.45;;;6.45;;